Time;durP1;ratioP1;P1;durP2;ratioP2;P2;SDS_P1;SDS_P2;PMS_P1;PMS_P2;Temp;Humidity;BMP_temperature;BMP_pressure;BME280_temperature;BME280_humidity;BME280_pressure;Samples;Min_cycle;Max_cycle;Signal;HPM_P1;HPM_P2
2021/04/03 00:01:56;;;;;;;14.07;7.95;;;;;;;;;;5095534;28;20208;-71
2021/04/03 00:04:22;;;;;;;11.75;7.00;;;;;;;;;;5095616;28;20311;-71
2021/04/03 00:06:49;;;;;;;14.05;5.88;;;;;;;;;;5095409;28;20196;-72
2021/04/03 00:09:15;;;;;;;13.35;7.88;;;;;;;;;;5095433;28;20199;-71
2021/04/03 00:11:41;;;;;;;6.70;5.10;;;;;;;;;;5095957;28;20679;-71
2021/04/03 00:14:07;;;;;;;12.02;7.40;;;;;;;;;;5095833;28;20561;-72
2021/04/03 00:16:34;;;;;;;15.23;7.90;;;;;;;;;;5095449;28;20325;-72
2021/04/03 00:19:00;;;;;;;9.60;6.30;;;;;;;;;;5095463;28;20215;-71
2021/04/03 00:21:27;;;;;;;9.70;4.95;;;;;;;;;;5095666;28;20188;-71
2021/04/03 00:23:53;;;;;;;7.32;6.55;;;;;;;;;;5095736;28;20234;-71
2021/04/03 00:26:19;;;;;;;14.82;6.03;;;;;;;;;;5095695;28;20208;-71
2021/04/03 00:28:45;;;;;;;10.75;5.75;;;;;;;;;;5095543;28;20207;-71
2021/04/03 00:31:11;;;;;;;11.45;5.35;;;;;;;;;;5095631;28;20192;-71
2021/04/03 00:33:38;;;;;;;10.23;5.15;;;;;;;;;;5095161;28;20206;-71
2021/04/03 00:36:05;;;;;;;7.68;4.10;;;;;;;;;;5095203;28;20681;-71
2021/04/03 00:38:31;;;;;;;6.22;4.22;;;;;;;;;;5095407;28;20584;-72
2021/04/03 00:40:57;;;;;;;7.43;3.80;;;;;;;;;;5094813;28;20294;-71
2021/04/03 00:43:23;;;;;;;6.93;4.35;;;;;;;;;;5094922;28;20685;-71
2021/04/03 00:45:49;;;;;;;6.00;3.92;;;;;;;;;;5095049;28;20257;-71
2021/04/03 00:48:16;;;;;;;6.60;4.28;;;;;;;;;;5095151;28;20204;-72
2021/04/03 00:50:44;;;;;;;5.00;3.70;;;;;;;;;;5094839;28;20206;-72
2021/04/03 00:53:12;;;;;;;8.63;4.25;;;;;;;;;;5094571;28;20231;-71
2021/04/03 00:55:39;;;;;;;7.53;3.60;;;;;;;;;;5094743;28;20204;-71
2021/04/03 00:58:05;;;;;;;5.43;3.42;;;;;;;;;;5094907;28;20626;-72
2021/04/03 01:00:31;;;;;;;4.60;3.70;;;;;;;;;;5094530;28;20220;-72
2021/04/03 01:02:57;;;;;;;5.07;3.92;;;;;;;;;;5094983;28;20211;-71
2021/04/03 01:05:24;;;;;;;4.40;3.20;;;;;;;;;;5094939;28;20276;-72
2021/04/03 01:07:51;;;;;;;3.70;2.70;;;;;;;;;;5094646;28;20211;-71
2021/04/03 01:10:19;;;;;;;5.88;3.40;;;;;;;;;;5094541;28;20200;-72
2021/04/03 01:12:54;;;;;;;6.20;3.38;;;;;;;;;;5094071;28;20192;-72
2021/04/03 01:15:23;;;;;;;4.97;3.03;;;;;;;;;;5094549;28;20210;-72
2021/04/03 01:17:56;;;;;;;6.43;3.05;;;;;;;;;;5094663;28;20215;-70
2021/04/03 01:20:25;;;;;;;4.35;3.17;;;;;;;;;;5094610;28;20264;-71
2021/04/03 01:23:01;;;;;;;5.30;3.35;;;;;;;;;;5094748;28;20216;-71
2021/04/03 01:25:32;;;;;;;5.00;3.50;;;;;;;;;;5094404;28;20211;-71
2021/04/03 01:28:09;;;;;;;4.35;3.05;;;;;;;;;;5093950;28;20246;-70
2021/04/03 01:30:39;;;;;;;5.72;2.53;;;;;;;;;;5094461;28;20229;-71
2021/04/03 01:33:07;;;;;;;2.88;2.35;;;;;;;;;;5093847;28;20200;-71
2021/04/03 01:35:35;;;;;;;2.72;2.40;;;;;;;;;;5093750;28;20204;-71
2021/04/03 01:38:02;;;;;;;4.85;2.22;;;;;;;;;;5093546;28;20235;-72
2021/04/03 01:40:28;;;;;;;6.00;2.88;;;;;;;;;;5094469;28;20234;-71
2021/04/03 01:42:59;;;;;;;3.83;3.00;;;;;;;;;;5093537;28;20220;-72
2021/04/03 01:45:26;;;;;;;3.30;2.47;;;;;;;;;;5093702;28;20195;-72
2021/04/03 01:47:54;;;;;;;3.30;2.85;;;;;;;;;;5093775;28;20206;-70
2021/04/03 01:50:21;;;;;;;4.38;3.00;;;;;;;;;;5094266;28;20207;-72
2021/04/03 01:52:48;;;;;;;4.22;2.78;;;;;;;;;;5094216;28;20189;-72
2021/04/03 01:55:14;;;;;;;5.05;3.15;;;;;;;;;;5093469;28;20721;-70
2021/04/03 01:57:44;;;;;;;4.15;2.85;;;;;;;;;;5094269;28;20253;-72
2021/04/03 02:00:11;;;;;;;6.05;3.40;;;;;;;;;;5093654;28;20326;-71
2021/04/03 02:02:38;;;;;;;3.72;2.88;;;;;;;;;;5093814;28;20215;-72
2021/04/03 02:05:08;;;;;;;3.10;2.78;;;;;;;;;;5093257;28;20256;-71
2021/04/03 02:07:37;;;;;;;5.38;2.33;;;;;;;;;;5093452;28;20230;-72
2021/04/03 02:10:05;;;;;;;3.88;2.08;;;;;;;;;;5093429;28;20184;-72
2021/04/03 02:12:33;;;;;;;9.70;3.17;;;;;;;;;;5093592;28;20212;-72
2021/04/03 02:15:01;;;;;;;3.30;3.00;;;;;;;;;;5093552;28;20180;-71
2021/04/03 02:17:29;;;;;;;3.65;2.00;;;;;;;;;;5093442;28;20184;-72
2021/04/03 02:19:55;;;;;;;2.47;2.25;;;;;;;;;;5093242;28;20716;-71
2021/04/03 02:22:23;;;;;;;4.22;2.95;;;;;;;;;;5093349;28;20611;-72
2021/04/03 02:24:49;;;;;;;6.28;2.97;;;;;;;;;;5093410;28;20223;-72
2021/04/03 02:27:15;;;;;;;4.32;2.45;;;;;;;;;;5092831;28;20231;-71
2021/04/03 02:29:41;;;;;;;3.47;2.30;;;;;;;;;;5092897;28;20200;-72
2021/04/03 02:32:08;;;;;;;3.97;2.85;;;;;;;;;;5092842;28;20438;-71
2021/04/03 02:34:34;;;;;;;2.92;2.35;;;;;;;;;;5093261;28;20556;-71
2021/04/03 02:37:00;;;;;;;3.60;2.40;;;;;;;;;;5092618;28;20235;-72
2021/04/03 02:39:27;;;;;;;5.47;3.50;;;;;;;;;;5092689;28;20203;-71
2021/04/03 02:41:57;;;;;;;3.45;2.50;;;;;;;;;;5092980;28;20188;-72
2021/04/03 02:44:27;;;;;;;4.68;2.80;;;;;;;;;;5092747;28;20656;-72
2021/04/03 02:46:55;;;;;;;6.85;2.88;;;;;;;;;;5093101;28;20205;-71
2021/04/03 02:49:24;;;;;;;2.83;2.63;;;;;;;;;;5093189;28;20203;-72
2021/04/03 02:51:54;;;;;;;2.42;2.17;;;;;;;;;;5093653;28;20200;-71
2021/04/03 02:54:22;;;;;;;3.08;1.95;;;;;;;;;;5093603;28;20203;-71
2021/04/03 02:56:49;;;;;;;3.83;2.95;;;;;;;;;;5093617;28;20544;-71
2021/04/03 02:59:17;;;;;;;4.30;2.70;;;;;;;;;;5093402;28;20195;-72
2021/04/03 03:01:44;;;;;;;3.17;2.25;;;;;;;;;;5092884;28;20203;-72
2021/04/03 03:04:11;;;;;;;3.65;2.50;;;;;;;;;;5093152;28;20212;-71
2021/04/03 03:06:37;;;;;;;2.97;2.38;;;;;;;;;;5092165;28;20204;-71
2021/04/03 03:09:04;;;;;;;4.97;2.45;;;;;;;;;;5092490;28;20244;-72
2021/04/03 03:11:31;;;;;;;4.28;3.08;;;;;;;;;;5092858;28;20184;-72
2021/04/03 03:13:58;;;;;;;9.40;2.42;;;;;;;;;;5092647;28;20664;-70
2021/04/03 03:16:25;;;;;;;2.40;1.73;;;;;;;;;;5092330;28;20241;-71
2021/04/03 03:18:51;;;;;;;4.93;3.13;;;;;;;;;;5092496;28;20207;-71
2021/04/03 03:21:17;;;;;;;4.05;2.35;;;;;;;;;;5092566;28;20200;-71
2021/04/03 03:23:43;;;;;;;4.15;2.20;;;;;;;;;;5092490;28;20646;-72
2021/04/03 03:26:10;;;;;;;3.05;2.60;;;;;;;;;;5092290;28;20638;-72
2021/04/03 03:28:37;;;;;;;3.80;2.42;;;;;;;;;;5092333;28;20210;-72
2021/04/03 03:31:04;;;;;;;2.22;1.60;;;;;;;;;;5092417;28;20192;-71
2021/04/03 03:33:30;;;;;;;7.38;2.58;;;;;;;;;;5092590;28;20199;-71
2021/04/03 03:35:57;;;;;;;2.88;2.25;;;;;;;;;;5092185;28;20284;-72
2021/04/03 03:38:23;;;;;;;6.60;2.83;;;;;;;;;;5092600;28;20230;-72
2021/04/03 03:40:51;;;;;;;4.35;2.65;;;;;;;;;;5092563;28;20196;-72
2021/04/03 03:43:17;;;;;;;3.88;2.50;;;;;;;;;;5092585;28;20207;-71
2021/04/03 03:45:44;;;;;;;4.13;2.75;;;;;;;;;;5092089;28;20250;-72
2021/04/03 03:48:11;;;;;;;3.38;1.83;;;;;;;;;;5092223;28;20226;-70
2021/04/03 03:50:37;;;;;;;3.58;2.58;;;;;;;;;;5092150;28;20242;-72
2021/04/03 03:53:03;;;;;;;2.88;2.20;;;;;;;;;;5091815;28;20199;-72
2021/04/03 03:55:29;;;;;;;2.88;2.22;;;;;;;;;;5091821;28;20208;-72
2021/04/03 03:57:55;;;;;;;2.42;2.20;;;;;;;;;;5092068;28;20559;-70
2021/04/03 04:00:22;;;;;;;2.38;2.00;;;;;;;;;;5091885;28;20188;-71
2021/04/03 04:02:48;;;;;;;3.15;2.40;;;;;;;;;;5092057;28;20239;-72
2021/04/03 04:05:15;;;;;;;3.22;1.80;;;;;;;;;;5091974;28;20490;-72
2021/04/03 04:07:41;;;;;;;2.95;1.80;;;;;;;;;;5092218;28;20267;-72
2021/04/03 04:10:09;;;;;;;3.25;2.42;;;;;;;;;;5091889;28;20204;-73
2021/04/03 04:12:35;;;;;;;6.13;2.78;;;;;;;;;;5092046;28;20204;-71
2021/04/03 04:15:01;;;;;;;6.85;2.47;;;;;;;;;;5091900;28;20195;-71
2021/04/03 04:17:27;;;;;;;5.32;3.60;;;;;;;;;;5092622;28;20196;-71
2021/04/03 04:19:53;;;;;;;3.50;2.35;;;;;;;;;;5095743;28;20725;-71
2021/04/03 04:22:20;;;;;;;2.25;2.05;;;;;;;;;;5095769;28;20544;-73
2021/04/03 04:24:47;;;;;;;5.40;2.60;;;;;;;;;;5095649;28;20246;-72
2021/04/03 04:27:13;;;;;;;4.35;3.20;;;;;;;;;;5095854;28;20249;-71
2021/04/03 04:29:39;;;;;;;5.18;3.10;;;;;;;;;;5095375;28;20669;-71
2021/04/03 04:32:05;;;;;;;5.57;2.80;;;;;;;;;;5095124;28;20211;-71
2021/04/03 04:34:31;;;;;;;3.28;2.30;;;;;;;;;;5095580;28;20703;-72
2021/04/03 04:36:57;;;;;;;5.93;2.95;;;;;;;;;;5094719;28;20267;-71
2021/04/03 04:39:25;;;;;;;2.67;2.22;;;;;;;;;;5095250;28;20577;-72
2021/04/03 04:41:51;;;;;;;5.47;3.42;;;;;;;;;;5095310;28;20223;-71
2021/04/03 04:44:17;;;;;;;5.18;2.50;;;;;;;;;;5095463;28;20215;-73
2021/04/03 04:46:43;;;;;;;8.15;2.40;;;;;;;;;;5095039;28;20437;-72
2021/04/03 04:49:09;;;;;;;9.52;3.38;;;;;;;;;;5094995;28;20196;-72
2021/04/03 04:51:35;;;;;;;3.00;2.05;;;;;;;;;;5094436;28;20202;-72
2021/04/03 04:54:01;;;;;;;5.05;2.45;;;;;;;;;;5074680;28;20200;-73
2021/04/03 04:56:28;;;;;;;3.78;2.47;;;;;;;;;;5074377;28;20652;-72
2021/04/03 04:58:54;;;;;;;2.53;2.08;;;;;;;;;;5074785;28;20330;-71
2021/04/03 05:01:20;;;;;;;5.43;2.33;;;;;;;;;;5074814;28;20216;-72
2021/04/03 05:03:47;;;;;;;2.95;2.00;;;;;;;;;;5074527;28;20990;-71
2021/04/03 05:06:12;;;;;;;6.65;2.85;;;;;;;;;;5089666;28;20218;-71
2021/04/03 05:08:39;;;;;;;4.60;2.80;;;;;;;;;;5094561;28;20203;-70
2021/04/03 05:11:05;;;;;;;2.92;2.22;;;;;;;;;;5094625;28;20211;-72
2021/04/03 05:13:32;;;;;;;5.50;2.47;;;;;;;;;;5094455;28;20188;-72
2021/04/03 05:15:58;;;;;;;2.88;2.60;;;;;;;;;;5094587;28;20212;-70
2021/04/03 05:18:24;;;;;;;2.75;2.10;;;;;;;;;;5094324;28;20227;-72
2021/04/03 05:20:50;;;;;;;3.00;2.30;;;;;;;;;;5094797;28;20302;-70
2021/04/03 05:23:17;;;;;;;4.60;2.30;;;;;;;;;;5094245;28;20252;-71
2021/04/03 05:25:43;;;;;;;5.25;2.20;;;;;;;;;;5094335;28;20204;-70
2021/04/03 05:28:09;;;;;;;6.15;2.50;;;;;;;;;;5092748;28;20203;-71
2021/04/03 05:30:36;;;;;;;9.75;2.38;;;;;;;;;;5094050;28;20204;-72
2021/04/03 05:33:03;;;;;;;3.03;1.88;;;;;;;;;;5093944;28;20719;-71
2021/04/03 05:35:29;;;;;;;4.15;2.35;;;;;;;;;;5093707;28;20224;-71
2021/04/03 05:37:55;;;;;;;3.80;2.63;;;;;;;;;;5093835;28;20204;-70
2021/04/03 05:40:21;;;;;;;3.42;2.22;;;;;;;;;;5094172;28;20606;-72
2021/04/03 05:42:47;;;;;;;3.78;2.25;;;;;;;;;;5094017;28;20657;-71
2021/04/03 05:45:15;;;;;;;5.88;2.80;;;;;;;;;;5093650;28;20706;-71
2021/04/03 05:47:42;;;;;;;4.18;2.35;;;;;;;;;;5093927;28;20639;-73
2021/04/03 05:50:09;;;;;;;5.70;3.20;;;;;;;;;;5094051;28;20222;-72
2021/04/03 05:52:35;;;;;;;2.50;2.00;;;;;;;;;;5093883;28;20199;-73
2021/04/03 05:55:01;;;;;;;3.65;2.33;;;;;;;;;;5093497;28;20244;-72
2021/04/03 05:57:28;;;;;;;4.05;2.80;;;;;;;;;;5093456;28;20184;-72
2021/04/03 05:59:54;;;;;;;4.28;2.80;;;;;;;;;;5093506;28;20203;-72
2021/04/03 06:02:20;;;;;;;8.27;2.50;;;;;;;;;;5093440;28;20199;-72
2021/04/03 06:04:47;;;;;;;2.83;2.53;;;;;;;;;;5093556;28;20200;-72
2021/04/03 06:07:13;;;;;;;3.30;2.50;;;;;;;;;;5093816;28;20196;-72
2021/04/03 06:09:40;;;;;;;9.63;2.60;;;;;;;;;;5093634;28;20630;-73
2021/04/03 06:12:07;;;;;;;6.47;3.65;;;;;;;;;;5093306;28;20273;-73
2021/04/03 06:14:35;;;;;;;4.13;2.30;;;;;;;;;;5093142;28;20279;-72
2021/04/03 06:17:01;;;;;;;4.75;3.03;;;;;;;;;;5093361;28;20227;-72
2021/04/03 06:19:27;;;;;;;8.70;3.05;;;;;;;;;;5093707;28;20196;-73
2021/04/03 06:21:58;;;;;;;6.10;3.38;;;;;;;;;;5092701;28;20231;-72
2021/04/03 06:24:25;;;;;;;7.20;3.13;;;;;;;;;;5092896;28;20311;-72
2021/04/03 06:26:51;;;;;;;4.03;2.65;;;;;;;;;;5092606;28;20612;-72
2021/04/03 06:29:22;;;;;;;4.05;2.33;;;;;;;;;;5093283;28;20657;-71
2021/04/03 06:31:53;;;;;;;4.50;2.63;;;;;;;;;;5092808;28;20204;-71
2021/04/03 06:34:26;;;;;;;4.72;3.15;;;;;;;;;;5092375;28;20192;-72
2021/04/03 06:36:52;;;;;;;8.45;3.03;;;;;;;;;;5092662;28;20265;-72
2021/04/03 06:39:19;;;;;;;10.77;3.42;;;;;;;;;;5092592;28;20200;-72
2021/04/03 06:41:45;;;;;;;6.53;3.25;;;;;;;;;;5092304;28;20218;-73
2021/04/03 06:44:12;;;;;;;9.57;3.20;;;;;;;;;;5092379;28;20273;-72
2021/04/03 06:46:39;;;;;;;5.88;2.38;;;;;;;;;;5092619;28;20264;-72
2021/04/03 06:49:05;;;;;;;7.13;3.42;;;;;;;;;;5092785;28;20204;-73
2021/04/03 06:51:33;;;;;;;3.80;2.67;;;;;;;;;;5092454;28;20212;-72
2021/04/03 06:53:59;;;;;;;3.25;2.92;;;;;;;;;;5092837;28;20215;-73
2021/04/03 06:56:27;;;;;;;4.32;2.95;;;;;;;;;;5092813;28;20637;-72
2021/04/03 06:58:55;;;;;;;5.43;3.55;;;;;;;;;;5091810;28;20245;-72
2021/04/03 07:01:21;;;;;;;5.25;3.00;;;;;;;;;;5092707;28;20208;-71
2021/04/03 07:03:49;;;;;;;6.93;2.67;;;;;;;;;;5092537;28;20216;-72
2021/04/03 07:06:16;;;;;;;8.88;3.47;;;;;;;;;;5091849;28;20196;-71
2021/04/03 07:08:42;;;;;;;4.35;2.80;;;;;;;;;;5092141;28;20191;-71
2021/04/03 07:11:08;;;;;;;6.77;3.00;;;;;;;;;;5092490;28;20214;-71
2021/04/03 07:13:35;;;;;;;6.68;3.47;;;;;;;;;;5092075;28;20837;-71
2021/04/03 07:16:03;;;;;;;7.45;3.83;;;;;;;;;;5091825;28;20622;-70
2021/04/03 07:18:30;;;;;;;7.88;3.15;;;;;;;;;;5092186;28;20286;-71
2021/04/03 07:20:56;;;;;;;5.72;3.85;;;;;;;;;;5091949;28;20281;-71
2021/04/03 07:23:23;;;;;;;11.77;5.05;;;;;;;;;;5091824;28;20216;-69
2021/04/03 07:25:50;;;;;;;5.80;3.35;;;;;;;;;;5091684;28;20199;-71
2021/04/03 07:28:20;;;;;;;5.20;3.65;;;;;;;;;;5092228;28;20514;-70
2021/04/03 07:30:47;;;;;;;6.78;3.50;;;;;;;;;;5092082;28;20212;-70
2021/04/03 07:33:15;;;;;;;5.60;4.13;;;;;;;;;;5091488;28;20285;-70
2021/04/03 07:35:45;;;;;;;6.63;3.80;;;;;;;;;;5091466;28;20232;-71
2021/04/03 07:38:13;;;;;;;7.53;2.78;;;;;;;;;;5091712;28;20206;-71
2021/04/03 07:40:43;;;;;;;6.55;3.92;;;;;;;;;;5091850;28;20204;-70
2021/04/03 07:43:29;;;;;;;9.63;3.95;;;;;;;;;;5091833;28;20219;-69
2021/04/03 07:45:56;;;;;;;8.70;3.38;;;;;;;;;;5091575;28;20208;-71
2021/04/03 07:48:41;;;;;;;7.20;4.13;;;;;;;;;;5092192;28;20189;-71
2021/04/03 07:51:09;;;;;;;11.00;3.55;;;;;;;;;;5091801;28;20291;-71
2021/04/03 07:53:35;;;;;;;6.80;3.35;;;;;;;;;;5094523;28;20196;-71
2021/04/03 07:56:02;;;;;;;9.38;3.55;;;;;;;;;;5095890;28;20211;-71
2021/04/03 07:58:29;;;;;;;6.38;3.65;;;;;;;;;;5095231;28;20204;-73
2021/04/03 08:00:56;;;;;;;7.82;3.97;;;;;;;;;;5095869;28;20204;-70
2021/04/03 08:03:23;;;;;;;6.97;3.22;;;;;;;;;;5095330;28;20245;-72
2021/04/03 08:05:50;;;;;;;7.15;3.53;;;;;;;;;;5095517;28;20298;-70
2021/04/03 08:08:19;;;;;;;17.35;4.32;;;;;;;;;;5096036;28;20203;-69
2021/04/03 08:10:45;;;;;;;8.43;3.85;;;;;;;;;;5095882;28;20228;-70
2021/04/03 08:13:11;;;;;;;9.05;3.40;;;;;;;;;;5095266;28;20283;-70
2021/04/03 08:15:41;;;;;;;12.63;3.60;;;;;;;;;;5095750;28;20370;-70
2021/04/03 08:18:09;;;;;;;6.20;3.38;;;;;;;;;;5095324;28;20262;-71
2021/04/03 08:20:35;;;;;;;9.85;3.92;;;;;;;;;;5095518;28;20203;-70
2021/04/03 08:23:03;;;;;;;7.03;4.05;;;;;;;;;;5095357;28;20212;-73
2021/04/03 08:25:29;;;;;;;4.95;3.70;;;;;;;;;;5095442;28;20226;-72
2021/04/03 08:27:57;;;;;;;6.57;4.25;;;;;;;;;;5095803;28;20201;-77
2021/04/03 08:30:28;;;;;;;7.28;3.78;;;;;;;;;;5095715;28;20239;-71
2021/04/03 08:33:04;;;;;;;8.32;4.75;;;;;;;;;;5095275;28;20204;-71
2021/04/03 08:35:32;;;;;;;5.68;3.47;;;;;;;;;;5094917;28;20271;-71
2021/04/03 08:38:11;;;;;;;7.72;3.83;;;;;;;;;;5095021;28;20705;-72
2021/04/03 08:40:37;;;;;;;12.57;5.18;;;;;;;;;;5095266;28;20206;-72
2021/04/03 08:43:06;;;;;;;5.55;3.97;;;;;;;;;;5094236;28;20264;-73
2021/04/03 08:45:41;;;;;;;8.52;4.68;;;;;;;;;;5094996;28;20207;-70
2021/04/03 08:48:08;;;;;;;9.00;5.10;;;;;;;;;;5094956;28;20206;-71
2021/04/03 08:50:35;;;;;;;5.78;3.10;;;;;;;;;;5094393;28;20237;-71
2021/04/03 08:53:02;;;;;;;5.97;3.65;;;;;;;;;;5094683;28;20204;-72
2021/04/03 08:55:29;;;;;;;6.70;4.60;;;;;;;;;;5094426;28;20197;-72
2021/04/03 08:57:55;;;;;;;7.82;4.03;;;;;;;;;;5094216;28;20588;-71
2021/04/03 09:00:22;;;;;;;9.65;4.40;;;;;;;;;;5094226;28;20239;-72
2021/04/03 09:02:52;;;;;;;8.98;5.13;;;;;;;;;;5094477;28;20626;-72
2021/04/03 09:05:18;;;;;;;7.32;3.83;;;;;;;;;;5093350;28;20257;-72
2021/04/03 09:07:45;;;;;;;10.05;4.00;;;;;;;;;;5094339;28;20220;-71
2021/04/03 09:10:14;;;;;;;7.18;3.85;;;;;;;;;;5094295;28;20210;-72
2021/04/03 09:12:40;;;;;;;7.97;4.78;;;;;;;;;;5094542;28;20270;-71
2021/04/03 09:15:07;;;;;;;6.85;4.60;;;;;;;;;;5093294;28;20631;-71
2021/04/03 09:17:34;;;;;;;6.25;3.80;;;;;;;;;;5093793;28;20190;-71
2021/04/03 09:20:07;;;;;;;9.75;4.88;;;;;;;;;;5094071;28;20540;-69
2021/04/03 09:22:37;;;;;;;12.02;4.50;;;;;;;;;;5094424;28;20211;-72
2021/04/03 09:25:07;;;;;;;10.40;4.72;;;;;;;;;;5093885;28;20257;-72
2021/04/03 09:27:33;;;;;;;6.65;3.47;;;;;;;;;;5093875;28;20324;-74
2021/04/03 09:30:05;;;;;;;6.72;4.22;;;;;;;;;;5094156;28;20293;-73
2021/04/03 09:32:39;;;;;;;5.85;3.90;;;;;;;;;;5093252;28;20501;-73
2021/04/03 09:35:06;;;;;;;7.18;4.30;;;;;;;;;;5093935;28;20287;-73
2021/04/03 09:37:32;;;;;;;6.53;3.65;;;;;;;;;;5093479;28;20272;-73
2021/04/03 09:39:59;;;;;;;7.55;3.90;;;;;;;;;;5093752;28;20208;-74
2021/04/03 09:42:26;;;;;;;5.80;3.55;;;;;;;;;;5093602;28;20267;-73
2021/04/03 09:44:53;;;;;;;4.43;2.90;;;;;;;;;;5093153;28;20673;-73
2021/04/03 09:47:20;;;;;;;4.30;2.95;;;;;;;;;;5093493;28;20204;-74
2021/04/03 09:49:46;;;;;;;4.65;3.40;;;;;;;;;;5093312;28;20642;-74
2021/04/03 09:52:13;;;;;;;9.68;3.78;;;;;;;;;;5093656;28;20204;-74
2021/04/03 09:54:40;;;;;;;4.15;3.70;;;;;;;;;;5093066;28;20201;-73
2021/04/03 09:57:06;;;;;;;8.15;3.22;;;;;;;;;;5093274;28;20209;-73
2021/04/03 09:59:34;;;;;;;6.65;3.22;;;;;;;;;;5093464;28;20209;-75
2021/04/03 10:02:00;;;;;;;5.68;3.53;;;;;;;;;;5093245;28;20204;-73
2021/04/03 10:04:27;;;;;;;11.80;4.28;;;;;;;;;;5092696;28;20271;-73
2021/04/03 10:06:54;;;;;;;6.85;4.35;;;;;;;;;;5092593;28;20209;-74
2021/04/03 10:09:20;;;;;;;7.97;3.70;;;;;;;;;;5092691;28;20192;-73
2021/04/03 10:11:46;;;;;;;9.80;4.50;;;;;;;;;;5093336;28;20200;-73
2021/04/03 10:14:12;;;;;;;7.53;3.25;;;;;;;;;;5092870;28;20225;-73
2021/04/03 10:16:39;;;;;;;6.03;3.88;;;;;;;;;;5092113;28;20231;-73
2021/04/03 10:19:06;;;;;;;5.70;3.63;;;;;;;;;;5093258;28;20202;-73
2021/04/03 10:21:32;;;;;;;6.95;3.75;;;;;;;;;;5093099;28;20312;-72
2021/04/03 10:23:59;;;;;;;5.40;3.40;;;;;;;;;;5093045;28;20378;-72
2021/04/03 10:26:25;;;;;;;6.57;3.50;;;;;;;;;;5093859;28;20595;-73
2021/04/03 10:28:51;;;;;;;6.03;3.85;;;;;;;;;;5092661;28;20203;-73
2021/04/03 10:31:17;;;;;;;7.72;4.10;;;;;;;;;;5092638;28;20211;-72
2021/04/03 10:33:44;;;;;;;6.75;2.65;;;;;;;;;;5092751;28;20252;-73
2021/04/03 10:36:10;;;;;;;5.35;3.80;;;;;;;;;;5092325;28;20227;-72
2021/04/03 10:38:38;;;;;;;8.50;3.17;;;;;;;;;;5092775;28;20287;-73
2021/04/03 10:41:04;;;;;;;5.10;2.80;;;;;;;;;;5092303;28;20194;-73
2021/04/03 10:43:31;;;;;;;4.25;2.78;;;;;;;;;;5092077;28;20259;-75
2021/04/03 10:45:57;;;;;;;4.40;2.70;;;;;;;;;;5092973;28;20233;-72
2021/04/03 10:48:23;;;;;;;3.67;2.85;;;;;;;;;;5091934;28;20226;-73
2021/04/03 10:50:50;;;;;;;6.05;3.25;;;;;;;;;;5092492;28;20291;-74
2021/04/03 10:53:16;;;;;;;6.13;2.78;;;;;;;;;;5092816;28;20693;-73
2021/04/03 10:55:43;;;;;;;7.47;3.25;;;;;;;;;;5091834;28;20203;-73
2021/04/03 10:58:09;;;;;;;4.43;2.10;;;;;;;;;;5091623;28;20196;-73
2021/04/03 11:00:35;;;;;;;4.38;2.03;;;;;;;;;;5092151;28;20290;-73
2021/04/03 11:03:04;;;;;;;3.40;2.13;;;;;;;;;;5092618;28;20282;-72
2021/04/03 11:05:30;;;;;;;10.18;4.13;;;;;;;;;;5091734;28;20222;-73
2021/04/03 11:07:58;;;;;;;3.75;2.58;;;;;;;;;;5091866;28;20569;-73
2021/04/03 11:10:24;;;;;;;5.20;3.72;;;;;;;;;;5091180;28;20204;-72
2021/04/03 11:12:50;;;;;;;7.28;2.17;;;;;;;;;;5092169;28;20210;-74
2021/04/03 11:15:17;;;;;;;3.00;2.15;;;;;;;;;;5091564;28;20546;-72
2021/04/03 11:17:43;;;;;;;5.22;2.60;;;;;;;;;;5091290;28;20249;-76
2021/04/03 11:20:10;;;;;;;3.17;2.65;;;;;;;;;;5091900;28;20208;-72
2021/04/03 11:22:36;;;;;;;5.97;3.13;;;;;;;;;;5091466;28;20180;-73
2021/04/03 11:25:04;;;;;;;6.65;3.22;;;;;;;;;;5091755;28;20266;-73
2021/04/03 11:27:30;;;;;;;5.07;3.17;;;;;;;;;;5093129;28;20553;-73
2021/04/03 11:29:56;;;;;;;8.32;3.63;;;;;;;;;;5096051;28;20200;-73
2021/04/03 11:32:23;;;;;;;4.15;3.08;;;;;;;;;;5096086;28;20203;-73
2021/04/03 11:34:49;;;;;;;9.05;2.70;;;;;;;;;;5096541;28;20227;-74
2021/04/03 11:37:15;;;;;;;5.18;2.58;;;;;;;;;;5095733;28;20232;-73
2021/04/03 11:39:44;;;;;;;4.80;2.67;;;;;;;;;;5096114;28;20200;-71
2021/04/03 11:42:11;;;;;;;5.40;3.10;;;;;;;;;;5096026;28;20188;-72
2021/04/03 11:44:37;;;;;;;3.38;2.75;;;;;;;;;;5095853;28;20336;-73
2021/04/03 11:47:03;;;;;;;2.95;2.40;;;;;;;;;;5095850;28;20563;-73
2021/04/03 11:49:29;;;;;;;8.82;3.63;;;;;;;;;;5096043;28;20207;-74
2021/04/03 11:51:55;;;;;;;3.60;2.50;;;;;;;;;;5096305;28;20194;-73
2021/04/03 11:54:22;;;;;;;4.57;2.40;;;;;;;;;;5095671;28;20242;-72
2021/04/03 11:56:48;;;;;;;4.55;2.70;;;;;;;;;;5095573;28;20242;-73
2021/04/03 11:59:15;;;;;;;5.97;2.78;;;;;;;;;;5095157;28;20206;-72
2021/04/03 12:01:41;;;;;;;2.85;2.05;;;;;;;;;;5095094;28;20622;-72
2021/04/03 12:04:07;;;;;;;5.72;2.67;;;;;;;;;;5095537;28;20620;-73
2021/04/03 12:06:33;;;;;;;2.85;2.47;;;;;;;;;;5095475;28;20215;-74
2021/04/03 12:09:00;;;;;;;2.58;1.90;;;;;;;;;;5095407;28;20243;-73
2021/04/03 12:11:26;;;;;;;6.97;2.50;;;;;;;;;;5095356;28;20626;-74
2021/04/03 12:13:52;;;;;;;6.45;2.20;;;;;;;;;;5095777;28;20227;-73
2021/04/03 12:16:19;;;;;;;3.10;1.98;;;;;;;;;;5095513;28;20291;-73
2021/04/03 12:18:49;;;;;;;2.90;2.10;;;;;;;;;;5095518;28;20180;-73
2021/04/03 12:21:18;;;;;;;2.75;1.70;;;;;;;;;;5094818;28;20284;-74
2021/04/03 12:23:44;;;;;;;6.63;2.53;;;;;;;;;;5095129;28;20204;-73
2021/04/03 12:26:11;;;;;;;5.97;2.25;;;;;;;;;;5094803;28;20295;-73
2021/04/03 12:28:37;;;;;;;2.40;2.20;;;;;;;;;;5094934;28;20246;-73
2021/04/03 12:31:03;;;;;;;3.45;2.28;;;;;;;;;;5095360;28;20216;-73
2021/04/03 12:33:30;;;;;;;4.80;2.00;;;;;;;;;;5095319;28;20196;-72
2021/04/03 12:35:56;;;;;;;6.20;1.98;;;;;;;;;;5094456;28;20296;-73
2021/04/03 12:38:22;;;;;;;2.92;2.28;;;;;;;;;;5094352;28;20206;-72
2021/04/03 12:40:48;;;;;;;5.55;2.80;;;;;;;;;;5094680;28;20204;-74
2021/04/03 12:43:14;;;;;;;3.58;2.47;;;;;;;;;;5094654;28;20196;-74
2021/04/03 12:45:40;;;;;;;4.72;1.63;;;;;;;;;;5094737;28;20586;-73
2021/04/03 12:48:07;;;;;;;2.50;1.70;;;;;;;;;;5093487;28;20267;-72
2021/04/03 12:50:34;;;;;;;2.50;1.60;;;;;;;;;;5094635;28;20553;-72
2021/04/03 12:53:00;;;;;;;3.78;1.73;;;;;;;;;;5094364;28;20635;-72
2021/04/03 12:55:26;;;;;;;4.15;1.80;;;;;;;;;;5094230;28;20192;-73
2021/04/03 12:57:52;;;;;;;4.25;1.83;;;;;;;;;;5094700;28;20634;-73
2021/04/03 13:00:18;;;;;;;2.33;1.88;;;;;;;;;;5094486;28;20297;-72
2021/04/03 13:02:45;;;;;;;4.13;1.90;;;;;;;;;;5094232;28;20721;-72
2021/04/03 13:05:11;;;;;;;3.72;1.70;;;;;;;;;;5094393;28;20224;-72
2021/04/03 13:07:38;;;;;;;2.67;2.33;;;;;;;;;;5094468;28;20200;-71
2021/04/03 13:10:05;;;;;;;3.17;1.80;;;;;;;;;;5094273;28;20254;-72
2021/04/03 13:12:31;;;;;;;2.40;1.80;;;;;;;;;;5094303;28;20213;-71
2021/04/03 13:14:57;;;;;;;3.25;1.85;;;;;;;;;;5094341;28;20204;-72
2021/04/03 13:17:23;;;;;;;3.85;2.00;;;;;;;;;;5094427;28;20653;-71
2021/04/03 13:19:49;;;;;;;3.65;2.17;;;;;;;;;;5094789;28;20826;-72
2021/04/03 13:22:15;;;;;;;5.28;1.90;;;;;;;;;;5093910;28;20212;-71
2021/04/03 13:24:42;;;;;;;4.70;1.50;;;;;;;;;;5093904;28;20230;-70
2021/04/03 13:27:09;;;;;;;2.42;1.45;;;;;;;;;;5094182;28;20203;-70
2021/04/03 13:29:37;;;;;;;1.92;1.35;;;;;;;;;;5093867;28;20259;-71
2021/04/03 13:32:04;;;;;;;4.50;2.00;;;;;;;;;;5093947;28;20190;-71
2021/04/03 13:34:30;;;;;;;1.70;1.60;;;;;;;;;;5093579;28;20278;-72
2021/04/03 13:36:56;;;;;;;1.13;0.88;;;;;;;;;;5093199;28;20230;-71
2021/04/03 13:39:22;;;;;;;1.70;1.33;;;;;;;;;;5093282;28;20204;-72
2021/04/03 13:41:50;;;;;;;2.50;1.55;;;;;;;;;;5093759;28;20206;-71
2021/04/03 13:44:16;;;;;;;6.00;1.85;;;;;;;;;;5093286;28;20261;-72
2021/04/03 13:46:42;;;;;;;2.30;1.77;;;;;;;;;;5092893;28;20206;-73
2021/04/03 13:49:08;;;;;;;2.25;1.33;;;;;;;;;;5093282;28;20251;-71
2021/04/03 13:51:34;;;;;;;1.55;1.20;;;;;;;;;;5091985;28;20284;-72
2021/04/03 13:54:01;;;;;;;3.78;1.58;;;;;;;;;;5093037;28;20211;-71
2021/04/03 13:56:27;;;;;;;3.30;1.65;;;;;;;;;;5092972;28;20179;-71
2021/04/03 13:58:54;;;;;;;3.67;1.20;;;;;;;;;;5093139;28;20605;-72
2021/04/03 14:01:20;;;;;;;4.65;1.40;;;;;;;;;;5092984;28;20219;-72
2021/04/03 14:03:46;;;;;;;3.78;1.00;;;;;;;;;;5093068;28;20203;-72
2021/04/03 14:06:12;;;;;;;3.58;1.77;;;;;;;;;;5092974;28;20239;-72
2021/04/03 14:08:39;;;;;;;1.08;0.95;;;;;;;;;;5092658;28;20685;-72
2021/04/03 14:11:05;;;;;;;1.85;0.90;;;;;;;;;;5092701;28;20235;-71
2021/04/03 14:13:33;;;;;;;5.18;1.25;;;;;;;;;;5092746;28;20290;-70
2021/04/03 14:16:02;;;;;;;2.85;1.23;;;;;;;;;;5092817;28;20257;-71
2021/04/03 14:18:29;;;;;;;4.60;1.20;;;;;;;;;;5092504;28;20280;-72
2021/04/03 14:20:55;;;;;;;1.77;1.67;;;;;;;;;;5092755;28;20295;-72
2021/04/03 14:23:21;;;;;;;1.00;0.80;;;;;;;;;;5093155;28;20292;-72
2021/04/03 14:25:47;;;;;;;3.58;1.35;;;;;;;;;;5092905;28;20220;-72
2021/04/03 14:28:14;;;;;;;4.38;0.80;;;;;;;;;;5092590;28;20576;-70
2021/04/03 14:30:40;;;;;;;1.45;1.08;;;;;;;;;;5092553;28;20203;-72
2021/04/03 14:33:07;;;;;;;4.68;1.20;;;;;;;;;;5092415;28;21138;-71
2021/04/03 14:35:34;;;;;;;1.60;1.10;;;;;;;;;;5092823;28;20180;-71
2021/04/03 14:38:00;;;;;;;1.42;1.05;;;;;;;;;;5092547;28;20222;-74
2021/04/03 14:40:26;;;;;;;2.55;1.20;;;;;;;;;;5092048;28;20203;-73
2021/04/03 14:42:52;;;;;;;2.42;0.85;;;;;;;;;;5092639;28;20691;-73